Time;durP1;ratioP1;P1;durP2;ratioP2;P2;SDS_P1;SDS_P2;PMS_P1;PMS_P2;Temp;Humidity;BMP_temperature;BMP_pressure;BME280_temperature;BME280_humidity;BME280_pressure;Samples;Min_cycle;Max_cycle;Signal;HPM_P1;HPM_P2
2022/05/16 00:00:04;;;;;;;;;;;16.80;59.40;;;;;;486927;245;1192;-77
2022/05/16 00:02:06;;;;;;;;;;;16.80;59.10;;;;;;486942;245;1219;-77
2022/05/16 00:04:07;;;;;;;;;;;17.00;58.90;;;;;;486999;245;1181;-77
2022/05/16 00:06:08;;;;;;;;;;;16.90;58.90;;;;;;486871;245;1273;-77
2022/05/16 00:08:10;;;;;;;;;;;16.80;59.10;;;;;;487004;245;1138;-77
2022/05/16 00:10:11;;;;;;;;;;;16.80;59.20;;;;;;487168;245;2256;-77
2022/05/16 00:12:12;;;;;;;;;;;16.80;59.30;;;;;;486830;245;1179;-77
2022/05/16 00:14:14;;;;;;;;;;;16.80;59.40;;;;;;487012;245;1139;-77
2022/05/16 00:16:15;;;;;;;;;;;16.80;59.40;;;;;;487008;245;1298;-77
2022/05/16 00:18:16;;;;;;;;;;;16.80;59.20;;;;;;486957;245;1222;-77
2022/05/16 00:20:18;;;;;;;;;;;16.70;59.30;;;;;;486930;245;1246;-77
2022/05/16 00:22:19;;;;;;;;;;;16.70;59.50;;;;;;486888;245;1182;-77
2022/05/16 00:24:26;;;;;;;;;;;16.70;59.60;;;;;;486914;245;1161;-77
2022/05/16 00:26:22;;;;;;;;;;;16.60;59.60;;;;;;486546;245;1496;-77
2022/05/16 00:28:23;;;;;;;;;;;16.60;59.70;;;;;;486945;245;1157;-78
2022/05/16 00:30:24;;;;;;;;;;;16.60;59.70;;;;;;486923;245;2182;-77
2022/05/16 00:32:26;;;;;;;;;;;16.60;59.70;;;;;;486949;245;1130;-77
2022/05/16 00:34:27;;;;;;;;;;;16.60;59.70;;;;;;486913;245;1160;-77
2022/05/16 00:36:28;;;;;;;;;;;16.70;59.70;;;;;;486819;245;1175;-77
2022/05/16 00:38:30;;;;;;;;;;;16.60;59.70;;;;;;486933;245;1260;-77
2022/05/16 00:40:31;;;;;;;;;;;16.60;59.70;;;;;;487176;245;1097;-77
2022/05/16 00:42:32;;;;;;;;;;;16.60;59.70;;;;;;486968;245;1182;-77
2022/05/16 00:44:35;;;;;;;;;;;16.60;59.80;;;;;;487127;245;1145;-77
2022/05/16 00:46:35;;;;;;;;;;;16.60;59.80;;;;;;487060;245;1485;-77
2022/05/16 00:48:36;;;;;;;;;;;16.60;59.70;;;;;;487006;245;1146;-77
2022/05/16 00:50:40;;;;;;;;;;;16.70;59.70;;;;;;487037;245;2194;-77
2022/05/16 00:52:40;;;;;;;;;;;16.70;59.60;;;;;;486857;245;1447;-77
2022/05/16 00:54:41;;;;;;;;;;;16.70;59.50;;;;;;486932;245;1256;-77
2022/05/16 00:56:42;;;;;;;;;;;16.70;59.60;;;;;;486938;245;1124;-77
2022/05/16 00:58:44;;;;;;;;;;;16.70;59.50;;;;;;486962;245;1181;-77
2022/05/16 01:00:45;;;;;;;;;;;16.70;59.50;;;;;;486969;245;1168;-77
2022/05/16 01:05:06;;;;;;;;;;;16.60;59.70;;;;;;487017;245;1121;-77
2022/05/16 01:07:07;;;;;;;;;;;16.60;59.60;;;;;;487013;245;1167;-77
2022/05/16 01:09:08;;;;;;;;;;;16.60;59.60;;;;;;487043;245;1174;-77
2022/05/16 01:11:10;;;;;;;;;;;16.70;59.60;;;;;;486877;245;2174;-77
2022/05/16 01:13:11;;;;;;;;;;;16.60;59.50;;;;;;487007;245;1126;-77
2022/05/16 01:15:13;;;;;;;;;;;16.70;59.50;;;;;;487132;245;1165;-77
2022/05/16 01:17:15;;;;;;;;;;;16.70;59.40;;;;;;486892;245;1125;-78
2022/05/16 01:19:16;;;;;;;;;;;16.70;59.50;;;;;;486936;245;1088;-77
2022/05/16 01:21:17;;;;;;;;;;;16.70;59.40;;;;;;487065;245;1078;-77
2022/05/16 01:23:19;;;;;;;;;;;16.70;59.40;;;;;;486917;245;1271;-77
2022/05/16 01:25:21;;;;;;;;;;;16.70;59.40;;;;;;486910;245;1272;-77
2022/05/16 01:27:21;;;;;;;;;;;16.70;59.40;;;;;;486812;245;1234;-77
2022/05/16 01:29:23;;;;;;;;;;;16.70;59.40;;;;;;487082;245;2114;-77
2022/05/16 01:31:24;;;;;;;;;;;16.70;59.40;;;;;;486908;245;1125;-77
2022/05/16 01:33:26;;;;;;;;;;;16.70;59.40;;;;;;487078;245;1151;-77
2022/05/16 01:35:27;;;;;;;;;;;16.70;59.40;;;;;;487099;245;1141;-77
2022/05/16 01:39:49;;;;;;;;;;;16.70;59.40;;;;;;486895;245;1134;-77
2022/05/16 01:41:50;;;;;;;;;;;16.70;59.50;;;;;;486960;245;1142;-77
2022/05/16 01:43:51;;;;;;;;;;;16.70;59.50;;;;;;487046;245;1297;-77
2022/05/16 01:45:53;;;;;;;;;;;16.70;59.40;;;;;;487120;245;1157;-77
2022/05/16 01:47:54;;;;;;;;;;;16.70;59.40;;;;;;487060;245;1112;-77
2022/05/16 01:49:55;;;;;;;;;;;16.70;59.40;;;;;;486932;245;2259;-77
2022/05/16 01:51:57;;;;;;;;;;;16.70;59.30;;;;;;486946;245;1108;-77
2022/05/16 01:53:58;;;;;;;;;;;16.70;59.30;;;;;;486946;245;1229;-77
2022/05/16 01:55:59;;;;;;;;;;;16.80;59.30;;;;;;486907;245;1215;-77
2022/05/16 01:58:01;;;;;;;;;;;16.80;59.30;;;;;;486901;245;1064;-77
2022/05/16 02:00:02;;;;;;;;;;;16.80;59.20;;;;;;487112;245;1102;-77
2022/05/16 02:02:03;;;;;;;;;;;16.80;59.20;;;;;;486927;245;1079;-77
2022/05/16 02:04:05;;;;;;;;;;;16.80;59.30;;;;;;486993;245;1204;-77
2022/05/16 02:06:06;;;;;;;;;;;16.80;59.50;;;;;;487039;245;1129;-77
2022/05/16 02:08:07;;;;;;;;;;;16.80;59.50;;;;;;486975;245;1169;-77
2022/05/16 02:10:09;;;;;;;;;;;16.80;59.50;;;;;;487045;245;2186;-77
2022/05/16 02:12:10;;;;;;;;;;;16.70;59.40;;;;;;487086;245;1051;-77
2022/05/16 02:14:12;;;;;;;;;;;16.70;59.40;;;;;;487050;245;1087;-77
2022/05/16 02:16:13;;;;;;;;;;;16.70;59.50;;;;;;487183;245;1194;-77
2022/05/16 02:18:14;;;;;;;;;;;16.70;59.40;;;;;;486954;245;1054;-77
2022/05/16 02:20:15;;;;;;;;;;;16.80;59.50;;;;;;487028;245;1166;-77
2022/05/16 02:24:39;;;;;;;;;;;16.70;59.30;;;;;;487022;245;964;-77
2022/05/16 02:26:46;;;;;;;;;;;16.70;59.40;;;;;;486979;245;975;-77
2022/05/16 02:28:42;;;;;;;;;;;16.70;59.50;;;;;;486728;245;1404;-77
2022/05/16 02:30:43;;;;;;;;;;;16.70;59.60;;;;;;487017;245;2114;-77
2022/05/16 02:32:45;;;;;;;;;;;16.70;59.60;;;;;;486969;245;1003;-77
2022/05/16 02:34:46;;;;;;;;;;;16.70;59.40;;;;;;486916;245;995;-78
2022/05/16 02:36:47;;;;;;;;;;;16.70;59.40;;;;;;486839;244;1178;-77
2022/05/16 02:38:49;;;;;;;;;;;16.70;59.50;;;;;;487004;245;979;-77
2022/05/16 02:40:50;;;;;;;;;;;16.80;59.50;;;;;;487001;245;1280;-77
2022/05/16 02:42:51;;;;;;;;;;;16.70;59.50;;;;;;487121;245;1218;-77
2022/05/16 02:44:53;;;;;;;;;;;16.70;59.50;;;;;;487226;245;1097;-77
2022/05/16 02:46:54;;;;;;;;;;;16.70;59.50;;;;;;487050;245;1209;-77
2022/05/16 02:48:55;;;;;;;;;;;16.70;59.40;;;;;;487022;245;1141;-77
2022/05/16 02:50:57;;;;;;;;;;;16.70;59.50;;;;;;486890;245;2202;-78
2022/05/16 02:52:58;;;;;;;;;;;16.80;59.40;;;;;;487004;245;1167;-77
2022/05/16 02:55:00;;;;;;;;;;;16.80;59.40;;;;;;486949;245;1136;-77
2022/05/16 02:57:02;;;;;;;;;;;16.80;59.40;;;;;;486933;245;1154;-77
2022/05/16 02:59:03;;;;;;;;;;;16.70;59.40;;;;;;487007;245;1188;-77
2022/05/16 03:01:05;;;;;;;;;;;16.70;59.50;;;;;;487097;245;1184;-77
2022/05/16 03:03:06;;;;;;;;;;;16.70;59.50;;;;;;486954;245;1216;-77
2022/05/16 03:05:07;;;;;;;;;;;16.70;59.40;;;;;;487082;245;1165;-77
2022/05/16 03:07:08;;;;;;;;;;;16.70;59.40;;;;;;487050;245;1185;-78
2022/05/16 03:09:10;;;;;;;;;;;16.80;59.50;;;;;;487024;245;1268;-77
2022/05/16 03:11:11;;;;;;;;;;;16.70;59.40;;;;;;486998;245;2202;-77
2022/05/16 03:13:12;;;;;;;;;;;16.70;59.50;;;;;;487009;245;1297;-77
2022/05/16 03:15:14;;;;;;;;;;;16.80;59.50;;;;;;486960;245;1144;-77
2022/05/16 03:17:15;;;;;;;;;;;16.80;59.50;;;;;;486980;245;1081;-77
2022/05/16 03:19:17;;;;;;;;;;;16.80;59.50;;;;;;487024;245;1160;-77
2022/05/16 03:21:19;;;;;;;;;;;16.80;59.40;;;;;;487054;245;1122;-77
2022/05/16 03:23:19;;;;;;;;;;;16.80;59.30;;;;;;486995;245;1493;-77
2022/05/16 03:25:21;;;;;;;;;;;16.80;59.30;;;;;;486998;245;1170;-77
2022/05/16 03:27:22;;;;;;;;;;;16.80;59.40;;;;;;487163;245;1067;-77
2022/05/16 03:29:23;;;;;;;;;;;16.80;59.40;;;;;;487000;245;1148;-77
2022/05/16 03:31:25;;;;;;;;;;;16.80;59.30;;;;;;487099;245;2190;-77
2022/05/16 03:33:26;;;;;;;;;;;16.80;59.40;;;;;;487127;245;1092;-77
2022/05/16 03:35:27;;;;;;;;;;;16.70;59.40;;;;;;487114;245;1219;-77
2022/05/16 03:37:29;;;;;;;;;;;16.70;59.50;;;;;;487034;245;1161;-77
2022/05/16 03:41:49;;;;;;;;;;;16.70;59.50;;;;;;486871;245;1190;-77
2022/05/16 03:43:51;;;;;;;;;;;16.70;59.50;;;;;;486930;243;1158;-77
2022/05/16 03:45:52;;;;;;;;;;;16.70;59.40;;;;;;487117;245;1094;-78
2022/05/16 03:47:54;;;;;;;;;;;16.80;59.40;;;;;;486961;245;1104;-77
2022/05/16 03:49:55;;;;;;;;;;;16.80;59.40;;;;;;487077;245;1200;-77
2022/05/16 03:51:56;;;;;;;;;;;16.80;59.40;;;;;;486929;245;2175;-77
2022/05/16 03:53:58;;;;;;;;;;;16.80;59.20;;;;;;486892;245;1235;-77
2022/05/16 03:55:59;;;;;;;;;;;16.80;59.40;;;;;;486932;245;1122;-77
2022/05/16 03:58:00;;;;;;;;;;;16.80;59.40;;;;;;486961;245;1129;-77
2022/05/16 04:00:02;;;;;;;;;;;16.80;59.20;;;;;;486999;245;1217;-77
2022/05/16 04:02:03;;;;;;;;;;;16.80;59.30;;;;;;487114;245;1114;-77
2022/05/16 04:04:04;;;;;;;;;;;16.90;59.20;;;;;;487150;245;1178;-77
2022/05/16 04:06:05;;;;;;;;;;;16.90;59.10;;;;;;487118;245;1166;-77
2022/05/16 04:08:07;;;;;;;;;;;16.90;59.10;;;;;;487176;245;1148;-77
2022/05/16 04:10:08;;;;;;;;;;;16.90;59.20;;;;;;487226;245;1259;-77
2022/05/16 04:12:09;;;;;;;;;;;16.90;59.20;;;;;;487166;245;2190;-77
2022/05/16 04:14:11;;;;;;;;;;;16.80;59.20;;;;;;487296;245;1266;-77
2022/05/16 04:16:12;;;;;;;;;;;16.80;59.30;;;;;;487183;245;1472;-77
2022/05/16 04:18:13;;;;;;;;;;;16.80;59.50;;;;;;487185;245;1088;-77
2022/05/16 04:20:15;;;;;;;;;;;16.80;59.50;;;;;;487230;243;1131;-77
2022/05/16 04:22:16;;;;;;;;;;;16.80;59.60;;;;;;487143;245;1198;-77
2022/05/16 04:24:17;;;;;;;;;;;16.70;59.50;;;;;;487129;245;1181;-77
2022/05/16 04:26:19;;;;;;;;;;;16.80;59.60;;;;;;487208;245;1035;-77
2022/05/16 04:28:20;;;;;;;;;;;16.80;59.60;;;;;;487178;245;1196;-77
2022/05/16 04:30:21;;;;;;;;;;;16.70;59.40;;;;;;487181;245;1172;-77
2022/05/16 04:32:23;;;;;;;;;;;16.80;59.50;;;;;;487206;245;2174;-77
2022/05/16 04:34:24;;;;;;;;;;;16.80;59.60;;;;;;487141;245;1182;-77
2022/05/16 04:36:25;;;;;;;;;;;16.80;59.60;;;;;;487148;245;1065;-77
2022/05/16 04:38:27;;;;;;;;;;;16.70;59.60;;;;;;487105;245;1171;-78
2022/05/16 04:40:28;;;;;;;;;;;16.70;59.70;;;;;;487016;245;1101;-77
2022/05/16 04:42:42;;;;;;;;;;;16.70;59.70;;;;;;486955;245;1072;-77
2022/05/16 04:44:43;;;;;;;;;;;16.70;59.70;;;;;;487012;245;1135;-77
2022/05/16 04:46:44;;;;;;;;;;;16.70;59.70;;;;;;486950;245;1125;-77
2022/05/16 04:48:46;;;;;;;;;;;16.70;59.70;;;;;;486983;245;1065;-77
2022/05/16 04:50:47;;;;;;;;;;;16.70;59.80;;;;;;487017;245;2190;-77
2022/05/16 04:52:48;;;;;;;;;;;16.70;59.70;;;;;;486959;245;1137;-77
2022/05/16 04:54:51;;;;;;;;;;;16.70;59.60;;;;;;487145;245;1066;-77
2022/05/16 04:56:51;;;;;;;;;;;16.70;59.70;;;;;;487075;245;1421;-77
2022/05/16 04:58:52;;;;;;;;;;;16.70;59.80;;;;;;486914;245;1180;-77
2022/05/16 05:00:53;;;;;;;;;;;16.80;59.70;;;;;;487117;245;1182;-77
2022/05/16 05:02:56;;;;;;;;;;;16.80;59.70;;;;;;487193;245;1137;-77
2022/05/16 05:04:56;;;;;;;;;;;16.80;59.70;;;;;;486863;245;1405;-78
2022/05/16 05:06:57;;;;;;;;;;;16.70;59.80;;;;;;486931;245;1096;-77
2022/05/16 05:08:59;;;;;;;;;;;16.70;59.90;;;;;;486914;245;1185;-77
2022/05/16 05:15:39;;;;;;;;;;;16.70;59.90;;;;;;487030;245;1089;-77
2022/05/16 05:17:40;;;;;;;;;;;16.80;59.90;;;;;;486827;245;1318;-77
2022/05/16 05:19:42;;;;;;;;;;;16.80;59.90;;;;;;486935;245;1231;-77
2022/05/16 05:21:43;;;;;;;;;;;16.80;59.90;;;;;;486852;245;1303;-78
2022/05/16 05:23:44;;;;;;;;;;;16.80;59.90;;;;;;486925;245;1148;-77
2022/05/16 05:25:46;;;;;;;;;;;16.80;60.00;;;;;;486838;245;1192;-77
2022/05/16 05:27:47;;;;;;;;;;;16.80;59.90;;;;;;486868;245;1144;-77
2022/05/16 05:29:48;;;;;;;;;;;16.80;59.90;;;;;;486819;245;1022;-77
2022/05/16 05:31:50;;;;;;;;;;;16.80;59.90;;;;;;486959;245;2190;-77
2022/05/16 05:33:51;;;;;;;;;;;16.80;59.70;;;;;;486915;245;1067;-77
2022/05/16 05:35:52;;;;;;;;;;;16.90;59.80;;;;;;486795;245;1276;-77
2022/05/16 05:37:55;;;;;;;;;;;16.90;59.80;;;;;;486778;245;1047;-77
2022/05/16 05:39:58;;;;;;;;;;;16.80;59.80;;;;;;486890;245;1491;-77
2022/05/16 05:41:57;;;;;;;;;;;16.90;59.90;;;;;;486695;245;1284;-77
2022/05/16 05:43:59;;;;;;;;;;;16.80;59.90;;;;;;486893;245;1152;-77
2022/05/16 05:46:00;;;;;;;;;;;16.80;59.80;;;;;;486706;245;1532;-77
2022/05/16 05:48:01;;;;;;;;;;;16.80;59.90;;;;;;486752;245;1116;-77
2022/05/16 05:50:03;;;;;;;;;;;16.80;59.90;;;;;;486715;245;1441;-77
2022/05/16 05:52:04;;;;;;;;;;;16.80;59.80;;;;;;486494;245;2214;-77
2022/05/16 05:54:05;;;;;;;;;;;16.80;59.80;;;;;;486740;245;1209;-77
2022/05/16 05:56:07;;;;;;;;;;;16.80;60.00;;;;;;486731;245;1087;-77
2022/05/16 05:58:08;;;;;;;;;;;16.80;60.20;;;;;;486935;245;1092;-79
2022/05/16 06:00:09;;;;;;;;;;;16.80;60.00;;;;;;486728;245;1009;-77
2022/05/16 06:02:11;;;;;;;;;;;16.80;59.90;;;;;;486612;245;1131;-79
2022/05/16 06:04:12;;;;;;;;;;;16.90;59.70;;;;;;486836;245;1185;-79
2022/05/16 06:06:14;;;;;;;;;;;16.90;59.70;;;;;;486679;245;1253;-77
2022/05/16 06:08:15;;;;;;;;;;;16.80;59.80;;;;;;486754;245;1149;-78
2022/05/16 06:10:16;;;;;;;;;;;16.80;59.80;;;;;;486632;245;1164;-77
2022/05/16 06:12:17;;;;;;;;;;;16.70;60.00;;;;;;486770;245;2178;-79
2022/05/16 06:14:19;;;;;;;;;;;16.70;60.10;;;;;;486874;245;1157;-78
2022/05/16 06:16:20;;;;;;;;;;;16.70;60.10;;;;;;486717;245;1233;-79
2022/05/16 06:18:22;;;;;;;;;;;16.70;60.30;;;;;;486938;245;1103;-77
2022/05/16 06:20:23;;;;;;;;;;;16.80;60.20;;;;;;486832;245;1406;-77
2022/05/16 06:22:24;;;;;;;;;;;16.80;60.30;;;;;;486757;245;1119;-79
2022/05/16 06:26:45;;;;;;;;;;;16.80;60.20;;;;;;486656;245;1281;-79
2022/05/16 06:28:46;;;;;;;;;;;16.80;60.00;;;;;;486690;245;1249;-79
2022/05/16 06:30:47;;;;;;;;;;;16.80;60.20;;;;;;486662;245;1234;-77
2022/05/16 06:32:48;;;;;;;;;;;16.70;60.20;;;;;;486681;245;2167;-77
2022/05/16 06:34:50;;;;;;;;;;;16.80;60.40;;;;;;486817;245;988;-79
2022/05/16 06:36:51;;;;;;;;;;;16.70;60.40;;;;;;486865;245;1092;-79
2022/05/16 06:38:52;;;;;;;;;;;16.80;60.40;;;;;;486769;245;1173;-78
2022/05/16 06:40:55;;;;;;;;;;;16.80;60.40;;;;;;486749;245;1067;-79
2022/05/16 06:42:55;;;;;;;;;;;16.80;60.30;;;;;;486593;245;1413;-80
2022/05/16 06:44:56;;;;;;;;;;;16.80;60.40;;;;;;486789;245;1255;-79
2022/05/16 06:46:58;;;;;;;;;;;16.80;60.50;;;;;;486711;243;1501;-77
2022/05/16 06:48:59;;;;;;;;;;;16.90;60.50;;;;;;486690;245;1071;-79
2022/05/16 06:51:00;;;;;;;;;;;16.90;60.40;;;;;;486573;245;1101;-79
2022/05/16 06:53:03;;;;;;;;;;;16.90;60.30;;;;;;486538;245;2179;-79
2022/05/16 06:55:04;;;;;;;;;;;16.90;60.20;;;;;;486517;245;1216;-79
2022/05/16 06:57:05;;;;;;;;;;;16.90;60.20;;;;;;486612;245;1102;-79
2022/05/16 06:59:06;;;;;;;;;;;16.90;60.40;;;;;;486621;245;1025;-79
2022/05/16 07:01:08;;;;;;;;;;;16.90;60.30;;;;;;486517;245;1228;-77
2022/05/16 07:03:09;;;;;;;;;;;16.90;60.40;;;;;;486497;245;1155;-77
2022/05/16 07:05:10;;;;;;;;;;;16.90;60.50;;;;;;486390;245;1284;-77
2022/05/16 07:07:12;;;;;;;;;;;16.90;60.40;;;;;;486462;245;1108;-77
2022/05/16 07:09:13;;;;;;;;;;;16.90;60.50;;;;;;486444;245;1063;-78
2022/05/16 07:11:15;;;;;;;;;;;16.90;60.50;;;;;;485983;245;1145;-77
2022/05/16 07:13:16;;;;;;;;;;;16.80;60.60;;;;;;486535;245;2182;-77
2022/05/16 07:15:17;;;;;;;;;;;16.90;60.70;;;;;;486729;245;1078;-79
2022/05/16 07:17:19;;;;;;;;;;;16.90;60.60;;;;;;486599;245;1148;-77
2022/05/16 07:19:20;;;;;;;;;;;16.90;60.80;;;;;;486489;245;1077;-77
2022/05/16 07:21:21;;;;;;;;;;;16.90;60.90;;;;;;486379;243;1187;-77
2022/05/16 07:23:23;;;;;;;;;;;17.00;61.10;;;;;;486462;245;1088;-77
2022/05/16 07:25:25;;;;;;;;;;;17.10;61.10;;;;;;486311;242;1196;-77
2022/05/16 07:29:45;;;;;;;;;;;17.20;61.20;;;;;;486354;245;1218;-77
2022/05/16 07:31:46;;;;;;;;;;;17.30;61.20;;;;;;486273;245;2207;-77
2022/05/16 07:33:47;;;;;;;;;;;17.30;61.20;;;;;;486097;245;1133;-77
2022/05/16 07:35:50;;;;;;;;;;;17.40;61.20;;;;;;486044;245;1081;-77
2022/05/16 07:37:53;;;;;;;;;;;17.50;61.00;;;;;;486035;245;1371;-78
2022/05/16 07:39:52;;;;;;;;;;;17.40;61.30;;;;;;490922;242;1535;-77
2022/05/16 07:41:54;;;;;;;;;;;17.40;61.40;;;;;;491457;242;1180;-77
2022/05/16 07:43:55;;;;;;;;;;;17.50;61.60;;;;;;491340;242;1169;-78
2022/05/16 07:45:56;;;;;;;;;;;17.50;61.70;;;;;;491826;242;1186;-78
2022/05/16 07:48:00;;;;;;;;;;;17.50;61.60;;;;;;491813;241;1066;-77
2022/05/16 07:49:59;;;;;;;;;;;17.50;61.70;;;;;;491579;242;1395;-77
2022/05/16 07:52:00;;;;;;;;;;;17.50;61.90;;;;;;491464;242;2191;-77
2022/05/16 07:54:02;;;;;;;;;;;17.50;61.80;;;;;;491489;242;1169;-77
2022/05/16 07:56:04;;;;;;;;;;;17.60;61.80;;;;;;491740;242;1186;-78
2022/05/16 07:58:05;;;;;;;;;;;17.50;61.80;;;;;;491955;242;1049;-78
2022/05/16 08:00:06;;;;;;;;;;;17.60;62.00;;;;;;491584;242;1078;-79
2022/05/16 08:02:08;;;;;;;;;;;17.60;61.80;;;;;;491526;242;1081;-77
2022/05/16 08:04:09;;;;;;;;;;;17.60;61.80;;;;;;491575;242;1101;-79
2022/05/16 08:06:10;;;;;;;;;;;17.60;61.90;;;;;;491933;241;1386;-79
2022/05/16 08:10:31;;;;;;;;;;;17.60;61.80;;;;;;491525;242;1171;-77
2022/05/16 08:12:32;;;;;;;;;;;17.60;61.70;;;;;;491532;242;2199;-78
2022/05/16 08:14:34;;;;;;;;;;;17.60;61.80;;;;;;491627;242;1147;-78
2022/05/16 08:16:35;;;;;;;;;;;17.70;61.70;;;;;;491734;242;1380;-79
2022/05/16 08:18:36;;;;;;;;;;;17.70;61.60;;;;;;491750;241;1065;-79
2022/05/16 08:20:41;;;;;;;;;;;17.70;61.60;;;;;;491734;242;1248;-79
2022/05/16 08:22:39;;;;;;;;;;;17.70;61.80;;;;;;491281;242;1351;-76
2022/05/16 08:24:40;;;;;;;;;;;17.70;61.80;;;;;;491639;242;1139;-79
2022/05/16 08:26:42;;;;;;;;;;;17.70;61.70;;;;;;491647;241;1208;-79
2022/05/16 08:28:43;;;;;;;;;;;17.70;61.80;;;;;;491639;242;1129;-79
2022/05/16 08:30:45;;;;;;;;;;;17.70;61.80;;;;;;491633;241;1146;-79
2022/05/16 08:32:46;;;;;;;;;;;17.80;61.80;;;;;;491783;242;2199;-79
2022/05/16 08:34:47;;;;;;;;;;;17.70;61.70;;;;;;491586;242;1082;-79
2022/05/16 08:41:27;;;;;;;;;;;17.80;61.80;;;;;;491543;242;1371;-79
2022/05/16 08:43:29;;;;;;;;;;;17.70;61.90;;;;;;491781;242;1214;-79
2022/05/16 08:45:31;;;;;;;;;;;17.80;61.90;;;;;;491614;242;1371;-79
2022/05/16 08:47:32;;;;;;;;;;;17.80;61.60;;;;;;491714;242;1165;-79
2022/05/16 08:49:33;;;;;;;;;;;17.80;61.70;;;;;;491658;241;1097;-79
2022/05/16 08:51:34;;;;;;;;;;;17.80;61.80;;;;;;491565;242;1180;-79
2022/05/16 08:53:36;;;;;;;;;;;17.80;61.80;;;;;;491485;241;2186;-79
2022/05/16 08:55:37;;;;;;;;;;;17.70;61.90;;;;;;491550;242;1138;-78
2022/05/16 08:57:40;;;;;;;;;;;17.80;61.90;;;;;;491538;242;1135;-79
2022/05/16 08:59:40;;;;;;;;;;;17.90;61.80;;;;;;491461;242;1453;-79
2022/05/16 09:01:43;;;;;;;;;;;17.90;61.70;;;;;;491611;242;1220;-79
2022/05/16 09:03:43;;;;;;;;;;;17.80;61.70;;;;;;491341;242;1421;-79
2022/05/16 09:05:44;;;;;;;;;;;17.80;61.80;;;;;;491486;242;1310;-79
2022/05/16 09:07:46;;;;;;;;;;;17.80;61.80;;;;;;491340;241;1198;-76
2022/05/16 09:09:47;;;;;;;;;;;17.80;61.90;;;;;;491521;241;1116;-79
2022/05/16 09:11:48;;;;;;;;;;;17.80;61.80;;;;;;491348;242;1145;-79
2022/05/16 09:13:50;;;;;;;;;;;17.80;61.90;;;;;;491361;242;2196;-79
2022/05/16 09:15:51;;;;;;;;;;;17.90;61.90;;;;;;491724;241;1271;-79
2022/05/16 09:17:52;;;;;;;;;;;17.80;61.80;;;;;;491342;242;1123;-79
2022/05/16 09:19:53;;;;;;;;;;;17.90;61.70;;;;;;491508;241;1179;-79
2022/05/16 09:21:55;;;;;;;;;;;18.00;61.50;;;;;;491287;242;1245;-79
2022/05/16 09:23:58;;;;;;;;;;;18.00;61.60;;;;;;491574;242;1221;-79
2022/05/16 09:25:57;;;;;;;;;;;17.90;61.50;;;;;;491360;242;1368;-79
2022/05/16 09:30:18;;;;;;;;;;;17.90;61.70;;;;;;491377;242;1136;-79
2022/05/16 09:32:21;;;;;;;;;;;17.90;61.60;;;;;;491233;242;2199;-79
2022/05/16 09:34:21;;;;;;;;;;;18.00;61.50;;;;;;491226;242;1400;-79
2022/05/16 09:36:22;;;;;;;;;;;18.00;61.70;;;;;;491337;242;1308;-79
2022/05/16 09:38:23;;;;;;;;;;;18.10;61.70;;;;;;491682;242;1086;-79
2022/05/16 09:40:25;;;;;;;;;;;18.20;61.70;;;;;;491691;242;1082;-79
2022/05/16 09:42:26;;;;;;;;;;;18.20;61.70;;;;;;491691;242;1138;-79
2022/05/16 09:44:27;;;;;;;;;;;18.30;61.40;;;;;;491492;242;1376;-79
2022/05/16 09:46:29;;;;;;;;;;;18.40;61.20;;;;;;491676;241;1193;-77
2022/05/16 09:48:30;;;;;;;;;;;18.50;61.00;;;;;;491595;242;1112;-79
2022/05/16 09:50:31;;;;;;;;;;;18.50;61.10;;;;;;491777;242;1140;-77
2022/05/16 09:52:33;;;;;;;;;;;18.50;61.00;;;;;;491624;241;2195;-79
2022/05/16 09:54:35;;;;;;;;;;;18.50;61.00;;;;;;491693;242;1128;-79
2022/05/16 09:56:35;;;;;;;;;;;18.40;61.00;;;;;;491518;241;1345;-79
2022/05/16 09:58:37;;;;;;;;;;;18.40;61.00;;;;;;491476;242;1161;-77
2022/05/16 10:00:41;;;;;;;;;;;18.50;61.00;;;;;;491157;242;1101;-79
2022/05/16 10:02:40;;;;;;;;;;;18.40;61.00;;;;;;491523;242;1268;-77
2022/05/16 10:04:42;;;;;;;;;;;18.40;61.20;;;;;;491659;242;1156;-80
2022/05/16 10:06:44;;;;;;;;;;;18.30;61.30;;;;;;491079;242;1369;-77
2022/05/16 10:08:44;;;;;;;;;;;18.40;61.40;;;;;;491340;242;1373;-77
2022/05/16 10:10:46;;;;;;;;;;;18.50;61.20;;;;;;491113;242;1274;-79
2022/05/16 10:12:47;;;;;;;;;;;18.50;61.00;;;;;;491282;242;2196;-79
2022/05/16 10:14:49;;;;;;;;;;;18.50;60.90;;;;;;491872;242;1086;-79
2022/05/16 10:16:50;;;;;;;;;;;18.50;60.90;;;;;;491481;241;1222;-77
2022/05/16 10:18:51;;;;;;;;;;;18.50;60.90;;;;;;491544;242;1277;-79
2022/05/16 10:20:53;;;;;;;;;;;18.50;60.80;;;;;;491765;241;1350;-79
2022/05/16 10:22:54;;;;;;;;;;;18.40;61.00;;;;;;491662;242;1300;-79
2022/05/16 10:24:55;;;;;;;;;;;18.40;61.10;;;;;;491697;242;1191;-76
2022/05/16 10:26:57;;;;;;;;;;;18.40;61.20;;;;;;491560;242;1199;-76
2022/05/16 10:28:58;;;;;;;;;;;18.50;61.20;;;;;;491482;242;1097;-80
2022/05/16 10:33:32;;;;;;;;;;;18.40;61.10;;;;;;479022;242;2172;-77
2022/05/16 10:35:34;;;;;;;;;;;18.40;61.10;;;;;;491549;241;1095;-76
2022/05/16 10:37:35;;;;;;;;;;;18.40;61.30;;;;;;491406;242;1134;-78
2022/05/16 10:39:37;;;;;;;;;;;18.40;61.30;;;;;;491571;242;1083;-78
2022/05/16 10:41:38;;;;;;;;;;;18.40;61.40;;;;;;491617;240;1391;-78
2022/05/16 10:43:39;;;;;;;;;;;18.40;61.50;;;;;;491682;242;1332;-78
2022/05/16 10:45:40;;;;;;;;;;;18.40;61.20;;;;;;491586;241;1117;-78
2022/05/16 10:47:42;;;;;;;;;;;18.50;61.20;;;;;;491722;242;1046;-78
2022/05/16 10:49:43;;;;;;;;;;;18.40;61.30;;;;;;491633;241;1142;-78
2022/05/16 10:51:44;;;;;;;;;;;18.50;61.40;;;;;;491695;242;1154;-78
2022/05/16 10:53:48;;;;;;;;;;;18.60;61.00;;;;;;491878;242;2195;-80
2022/05/16 10:55:47;;;;;;;;;;;18.60;61.00;;;;;;491310;242;1938;-78
2022/05/16 10:57:48;;;;;;;;;;;18.70;61.10;;;;;;491546;242;1305;-79
2022/05/16 10:59:50;;;;;;;;;;;18.80;61.20;;;;;;491603;242;983;-78
2022/05/16 11:01:51;;;;;;;;;;;18.90;61.10;;;;;;491483;241;1272;-78
2022/05/16 11:03:53;;;;;;;;;;;19.00;61.20;;;;;;491541;242;1018;-79
2022/05/16 11:05:54;;;;;;;;;;;19.20;61.00;;;;;;491694;241;1097;-78
2022/05/16 11:07:55;;;;;;;;;;;19.30;60.70;;;;;;491776;242;1145;-78
2022/05/16 11:09:56;;;;;;;;;;;19.50;60.50;;;;;;492061;241;1137;-79
2022/05/16 11:11:58;;;;;;;;;;;19.70;60.20;;;;;;491751;241;1260;-79
2022/05/16 11:13:59;;;;;;;;;;;19.70;60.00;;;;;;491760;242;2182;-79
2022/05/16 11:16:00;;;;;;;;;;;19.80;60.00;;;;;;491875;241;1177;-79
2022/05/16 11:18:02;;;;;;;;;;;19.80;59.90;;;;;;491825;241;1362;-79
2022/05/16 11:20:04;;;;;;;;;;;19.80;59.70;;;;;;491688;241;1154;-79
2022/05/16 11:22:04;;;;;;;;;;;19.70;60.00;;;;;;491479;242;1410;-79
2022/05/16 11:24:07;;;;;;;;;;;19.50;60.20;;;;;;491695;242;1248;-79
2022/05/16 11:26:07;;;;;;;;;;;19.50;60.40;;;;;;491458;242;1305;-79
2022/05/16 11:28:08;;;;;;;;;;;19.40;60.30;;;;;;491862;242;1054;-79
2022/05/16 11:30:10;;;;;;;;;;;19.30;60.30;;;;;;491964;241;1338;-79
2022/05/16 11:32:11;;;;;;;;;;;19.10;60.40;;;;;;491630;242;1089;-79
2022/05/16 11:34:12;;;;;;;;;;;19.00;60.20;;;;;;491699;242;2188;-79
2022/05/16 11:36:16;;;;;;;;;;;19.00;60.30;;;;;;491625;241;1121;-79
2022/05/16 11:38:16;;;;;;;;;;;19.00;60.20;;;;;;491773;242;1335;-79
2022/05/16 11:40:17;;;;;;;;;;;18.90;60.10;;;;;;491907;242;1033;-79
2022/05/16 11:42:18;;;;;;;;;;;18.80;60.90;;;;;;492128;241;1042;-79
2022/05/16 11:44:20;;;;;;;;;;;18.90;61.10;;;;;;491733;242;1111;-79
2022/05/16 11:46:22;;;;;;;;;;;19.00;61.40;;;;;;492008;241;1126;-79
2022/05/16 11:48:23;;;;;;;;;;;19.20;61.10;;;;;;491733;242;1442;-79
2022/05/16 11:50:24;;;;;;;;;;;19.20;60.80;;;;;;491735;242;1071;-79
2022/05/16 11:52:25;;;;;;;;;;;19.30;60.70;;;;;;491696;242;1316;-79
2022/05/16 11:54:26;;;;;;;;;;;19.40;60.60;;;;;;491712;242;2195;-79
2022/05/16 12:01:07;;;;;;;;;;;19.50;60.10;;;;;;491770;242;1077;-79
2022/05/16 12:03:08;;;;;;;;;;;19.60;59.60;;;;;;492029;242;1169;-79
2022/05/16 12:05:09;;;;;;;;;;;19.50;59.50;;;;;;491828;242;1122;-77
2022/05/16 12:07:10;;;;;;;;;;;19.30;59.60;;;;;;491763;242;1243;-79
2022/05/16 12:09:15;;;;;;;;;;;19.20;59.80;;;;;;491975;242;1123;-79
2022/05/16 12:11:13;;;;;;;;;;;19.20;59.80;;;;;;491702;242;1295;-79
2022/05/16 12:13:18;;;;;;;;;;;19.10;60.00;;;;;;491970;242;2180;-79
2022/05/16 12:15:17;;;;;;;;;;;19.10;60.10;;;;;;492100;242;1603;-79
2022/05/16 12:17:19;;;;;;;;;;;19.10;60.00;;;;;;491984;242;1356;-79
2022/05/16 12:19:20;;;;;;;;;;;19.20;59.70;;;;;;491721;242;1210;-79
2022/05/16 12:21:21;;;;;;;;;;;19.20;59.30;;;;;;491851;242;1284;-80
2022/05/16 12:23:23;;;;;;;;;;;19.10;59.20;;;;;;491653;242;1450;-79
2022/05/16 12:25:24;;;;;;;;;;;19.00;59.70;;;;;;491757;242;1145;-79
2022/05/16 12:27:25;;;;;;;;;;;19.00;59.70;;;;;;492065;242;1267;-79
2022/05/16 12:29:27;;;;;;;;;;;19.00;59.90;;;;;;492138;242;1096;-79
2022/05/16 12:31:28;;;;;;;;;;;19.00;59.70;;;;;;491795;242;1234;-79